Gallup Mills, Vermont
Current Conditions -  °F | °C
As of 5:15 AM on Friday 19 Dec 2014 (Local Time) from KCDA Reporting Station
Unknown Precip Unknown Precip  
Wind Chill: 16°   Ceiling: 1300
Heat Index: 25°   Visibility: 10mi
Dew Point: 20°   Wind: 9mph
Humidity: 82%   Direction: 270°W
Pressure: 29.88"   Gusts: NA
Location:  44.5627°N, 71.7775°W
Report Text: KCDA 191015Z AUTO 27008KT 10SM UP OVC013 M04/M06 A2988 RMK AO2 T10371064
Loading
Personal Weather Stations






























Interactive Weather Map New forecast layout! Learn more

10-Day Weather Forecast

Advertisements
Track Severe Weather on mobile